リュブリャナ空港の過去48時間の天気

リュブリャナ空港 (Ljubljana / Brnik)

現在時刻: 10/24 11:48 CEST (10/24 09:48 UTC) 以下の時間は現地時間です。

過去48時間のMETAR気象情報
時間 風向 風速(m/s) 視程 気温(℃) 湿度(%) 気圧(hPa) 天気現象
24 11:30 東南東 3 10km以上 15 94 1017
24 11:00 東南東 2 10km以上 15 94 1017
24 10:30 2 10km以上 14 100 1016
24 10:00 2 10km以上 14 100 1017 弱いしゅう雨
24 09:30 東北東 1 10km以上 14 94 1017
24 09:00 1 10km以上 13 100 1016 弱いしゅう雨
24 08:30 不定 1 10km以上 13 100 1016 弱いしゅう雨
24 08:00 東北東 1 8000m 13 100 1016
24 07:30 不定 1 8000m 13 100 1016
24 07:00 静穏 0 8000m 13 100 1016
24 06:30 北東 2 8000m 13 100 1016
24 06:00 静穏 0 8000m 13 100 1016
24 05:30 不定 1 7000m 13 94 1016 弱い雨
24 05:00 不定 1 7000m 13 94 1016 弱い雨
24 04:30 不定 1 7000m 13 100 1016 弱い雨
24 04:00 不定 1 7000m 13 100 1016 弱い雨
24 03:30 不定 1 8000m 13 100 1017 弱い雨
24 03:00 東南東 2 8000m 13 94 1017 弱い雨
24 02:30 2 8000m 13 94 1017 弱い雨
24 02:00 2 8000m 13 94 1017 弱い雨
24 01:30 北西 1 8000m 13 94 1017 弱い雨
24 01:00 西 1 8000m 13 100 1017 弱い雨
24 00:30 西北西 2 10km以上 13 94 1018 弱い雨
24 00:00 西 3 10km以上 13 94 1017 弱い雨
23 23:30 西南西 3 10km以上 14 88 1018
23 23:00 南西 3 10km以上 14 88 1018
23 22:30 南西 4 10km以上 14 88 1017
23 22:00 南西 5 10km以上 15 82 1017
23 21:30 西北西 4 10km以上 15 82 1017
23 21:00 西南西 4 10km以上 15 77 1017
23 20:30 西南西 4 10km以上 15 77 1018
23 20:00 西南西 4 10km以上 15 77 1018
23 19:30 不定 1 10km以上 15 77 1018
23 19:00 南西 4 10km以上 15 77 1017
23 18:30 西南西 2 10km以上 15 77 1018
23 18:00 南西 4 10km以上 15 77 1017
23 17:30 南西 3 10km以上 16 72 1018
23 17:00 西南西 3 10km以上 16 72 1018
23 16:30 西南西 4 10km以上 17 68 1018
23 16:00 西南西 4 10km以上 17 68 1018
23 15:30 南西 4 10km以上 17 72 1018
23 15:00 西 4 10km以上 16 72 1019
23 14:30 南西 6 10km以上 16 72 1019
23 14:00 西南西 6 10km以上 16 72 1019
23 13:30 南西 5 10km以上 16 72 1019
23 13:00 南西 6 10km以上 16 72 1020
23 12:30 西南西 4 10km以上 16 72 1020
23 12:00 西 6 10km以上 16 72 1020
23 11:30 西南西 4 10km以上 16 68 1020
23 11:00 北西 1 10km以上 16 68 1020
23 10:30 不定 1 10km以上 12 88 1020
23 10:00 静穏 0 10km以上 11 87 1020
23 09:30 東北東 1 10km以上 10 94 1020
23 09:00 不定 1 10km以上 9 93 1020
23 08:30 不定 1 10km以上 8 100 1020
23 08:00 西北西 2 10km以上 8 93 1019
23 07:30 西北西 3 10km以上 8 93 1019
23 07:00 不定 1 10km以上 7 100 1020
23 06:30 不定 1 10km以上 6 100 1020
23 06:00 不定 1 10km以上 6 93 1020
23 05:30 西 2 10km以上 6 93 1020
23 05:00 西北西 1 10km以上 6 93 1020 地霧
23 04:30 不定 1 10km以上 6 100 1020 地霧
23 04:00 不定 1 10km以上 6 100 1020 地霧
23 03:30 不定 1 10km以上 5 100 1021 地霧
23 03:00 不定 1 10km以上 6 93 1021 地霧
23 02:30 西 2 10km以上 6 100 1021
23 02:00 不定 1 10km以上 6 100 1021
23 01:30 不定 1 10km以上 6 100 1021
23 01:00 西北西 2 10km以上 7 93 1021
23 00:30 西 1 10km以上 6 93 1021
23 00:00 西北西 3 10km以上 6 100 1021
22 23:30 1 10km以上 8 93 1021
22 23:00 南南東 1 10km以上 8 93 1021
22 22:30 北東 1 10km以上 9 93 1022
22 22:00 不定 1 10km以上 9 87 1022
22 21:30 南西 2 10km以上 11 82 1022
22 21:00 不定 1 10km以上 11 87 1022
22 20:30 西南西 2 10km以上 12 77 1022
22 20:00 南西 2 10km以上 13 72 1022
22 19:30 南西 3 10km以上 14 67 1022
22 19:00 南西 3 10km以上 14 72 1022
22 18:30 南西 3 10km以上 14 72 1021
22 18:00 南西 3 10km以上 15 67 1021
22 17:30 南西 3 10km以上 15 67 1021
22 17:00 南西 4 10km以上 16 63 1021
22 16:30 南西 4 10km以上 16 63 1021
22 16:00 南西 6 10km以上 17 59 1021
22 15:30 西南西 5 10km以上 17 63 1021
22 15:00 南西 6 10km以上 17 59 1021
22 14:30 南西 6 10km以上 18 56 1021
22 14:00 南西 7 10km以上 18 56 1021
22 13:30 西南西 7 10km以上 17 59 1022
22 13:00 西南西 7 10km以上 18 56 1022
22 12:30 西南西 5 10km以上 18 56 1022
22 12:00 南西 4 10km以上 17 59 1022
LJLJ 240930Z 11005KT 9999 BKN005 FEW018TCU BKN020 15/14 Q1017 NOSIG
LJLJ 240900Z 11004KT 9999 FEW018TCU BKN020 15/14 Q1017 NOSIG
LJLJ 240830Z 09004KT 9999 FEW018TCU BKN020 14/14 Q1016 NOSIG
LJLJ 240800Z 09003KT 9999 -SHRA FEW018TCU BKN020 14/14 Q1017 NOSIG
LJLJ 240730Z 07002KT 9999 FEW018TCU BKN020 BKN040 14/13 Q1017 NOSIG
LJLJ 240700Z 09002KT 9999 -SHRA FEW018TCU OVC020 13/13 Q1016 NOSIG
LJLJ 240630Z VRB02KT 9999 -SHRA FEW018TCU OVC020 13/13 Q1016 NOSIG
LJLJ 240600Z 07001KT 8000 OVC020 13/13 Q1016 NOSIG
LJLJ 240530Z VRB01KT 8000 OVC020 13/13 Q1016 NOSIG
LJLJ 240500Z 00000KT 8000 OVC020 13/13 Q1016 NOSIG
LJLJ 240430Z 05003KT 8000 FEW002 OVC023 13/13 Q1016 NOSIG
LJLJ 240400Z 00000KT 8000 FEW002 OVC023 13/13 Q1016 NOSIG
LJLJ 240330Z VRB02KT 7000 -RA FEW002 OVC027 13/12 Q1016 NOSIG
LJLJ 240300Z VRB02KT 7000 -RA FEW002 OVC027 13/12 Q1016 NOSIG
LJLJ 240230Z VRB01KT 7000 -RA FEW002 BKN023 OVC035 13/13 Q1016 NOSIG
LJLJ 240200Z VRB01KT 7000 -RA FEW002 BKN023 OVC035 13/13 Q1016 NOSIG
LJLJ 240130Z VRB02KT 8000 -RA FEW002 BKN023 OVC035 13/13 Q1017 NOSIG
LJLJ 240100Z 12004KT 8000 -RA FEW004 BKN023 OVC040 13/12 Q1017 NOSIG
LJLJ 240030Z 08003KT 8000 -RA FEW004 BKN028 OVC040 13/12 Q1017 NOSIG
LJLJ 240000Z 08003KT 8000 -RA FEW004 BKN028 OVC043 13/12 Q1017 NOSIG
LJLJ 232330Z 32002KT 8000 -RA FEW004 BKN035 OVC043 13/12 Q1017 NOSIG
LJLJ 232300Z 28002KT 8000 -RA FEW004 BKN035 OVC047 13/13 Q1017 NOSIG
LJLJ 232230Z 30003KT 9999 -RA FEW004 SCT035 OVC047 13/12 Q1018 NOSIG
LJLJ 232200Z 27005KT 9999 -RA FEW004 SCT035 OVC050 13/12 Q1017 NOSIG
LJLJ 232130Z 24005KT 9999 FEW004 SCT035 OVC050 14/12 Q1018 NOSIG
LJLJ 232100Z 23006KT 9999 FEW023 SCT035 OVC050 14/12 Q1018 NOSIG
LJLJ 232030Z 22008KT 9999 FEW023 SCT033 OVC053 14/12 Q1017 NOSIG
LJLJ 232000Z 23009KT 9999 FEW025 BKN033 OVC043 15/12 Q1017 NOSIG
LJLJ 231930Z 29007KT 9999 FEW025 BKN033 OVC043 15/12 Q1017 NOSIG
LJLJ 231900Z 25008KT 9999 FEW025 BKN033 BKN050 15/11 Q1017 NOSIG
LJLJ 231830Z 25007KT 220V280 9999 FEW028 SCT038 BKN057 15/11 Q1018 NOSIG
LJLJ 231800Z 24008KT 9999 FEW028 SCT035 BKN057 15/11 Q1018 NOSIG
LJLJ 231730Z VRB02KT 9999 SCT033 BKN050 15/11 Q1018 NOSIG
LJLJ 231700Z 22007KT 9999 FEW033 BKN050 15/11 Q1017 NOSIG
LJLJ 231630Z 24004KT 200V270 9999 FEW033 SCT050 15/11 Q1018 NOSIG
LJLJ 231600Z 23008KT 200V270 9999 FEW033 SCT050 15/11 Q1017 NOSIG
LJLJ 231530Z 23006KT 9999 FEW033 SCT050 16/11 Q1018 NOSIG
LJLJ 231500Z 24006KT 210V280 9999 FEW033 SCT050 16/11 Q1018 NOSIG
LJLJ 231430Z 24008KT 210V270 9999 FEW033 SCT100 BKN220 17/11 Q1018 NOSIG
LJLJ 231400Z 24007KT 200V280 9999 FEW033 SCT100 BKN220 17/11 Q1018 NOSIG
LJLJ 231330Z 23008KT 160V260 9999 FEW030 BKN045 17/12 Q1018 NOSIG
LJLJ 231300Z 26007KT 220V290 9999 FEW030 BKN045 16/11 Q1019 NOSIG
LJLJ 231230Z 23011KT 200V260 9999 FEW027 SCT045 16/11 Q1019 NOSIG
LJLJ 231200Z 24011KT 200V260 9999 FEW027 SCT035 16/11 Q1019 NOSIG
LJLJ 231130Z 23010KT 200V260 9999 FEW027 SCT033 16/11 Q1019 NOSIG
LJLJ 231100Z 23011KT 9999 FEW027 SCT033 16/11 Q1020 NOSIG
LJLJ 231030Z 25007KT 210V280 9999 FEW027 SCT033 BKN130 16/11 Q1020 NOSIG
LJLJ 231000Z 27011KT 9999 FEW027 SCT033 BKN130 16/11 Q1020 NOSIG
LJLJ 230930Z 25007KT 220V280 9999 FEW033 SCT130 BKN200 16/10 Q1020 NOSIG
LJLJ 230900Z 32001KT 9999 FEW033 SCT130 BKN200 16/10 Q1020 NOSIG
LJLJ 230830Z VRB01KT 9999 FEW033 SCT130 BKN200 12/10 Q1020 NOSIG
LJLJ 230800Z 00000KT 9999 FEW033 SCT130 BKN200 11/09 Q1020 NOSIG
LJLJ 230730Z 06001KT 9999 FEW033 SCT130 BKN200 10/09 Q1020 NOSIG
LJLJ 230700Z VRB01KT 9999 FEW033 SCT040 BKN200 09/08 Q1020 NOSIG
LJLJ 230630Z VRB02KT 9999 FEW033 SCT040 BKN200 08/08 Q1020 NOSIG
LJLJ 230600Z 30004KT 280V340 9999 FEW033 BKN040 08/07 Q1019 NOSIG
LJLJ 230530Z 29005KT 9999 BKN033 08/07 Q1019 NOSIG
LJLJ 230500Z VRB02KT 9999 BKN033 07/07 Q1020 NOSIG
LJLJ 230430Z VRB02KT 9999 BKN033 06/06 Q1020 NOSIG
LJLJ 230400Z VRB02KT 9999 FEW033 06/05 Q1020 NOSIG
LJLJ 230330Z 27003KT 200V310 9999 SCT033 06/05 Q1020 NOSIG
LJLJ 230300Z 30002KT 9999 MIFG FEW033 06/05 Q1020 NOSIG
LJLJ 230230Z VRB02KT 9999 MIFG FEW033 06/06 Q1020 NOSIG
LJLJ 230200Z VRB01KT 9999 MIFG FEW033 06/06 Q1020 NOSIG
LJLJ 230130Z VRB02KT 9999 MIFG FEW033 05/05 Q1021 NOSIG
LJLJ 230100Z VRB02KT 9999 MIFG FEW033 06/05 Q1021 NOSIG
LJLJ 230030Z 26003KT 210V300 9999 FEW033 06/06 Q1021 NOSIG
LJLJ 230000Z VRB02KT 9999 FEW033 06/06 Q1021 NOSIG
LJLJ 222330Z VRB01KT 9999 FEW033 06/06 Q1021 NOSIG
LJLJ 222300Z 30004KT 9999 FEW033 07/06 Q1021 NOSIG
LJLJ 222230Z 28002KT 9999 FEW033 06/05 Q1021 NOSIG
LJLJ 222200Z 29005KT 9999 FEW033 06/06 Q1021 NOSIG
LJLJ 222130Z 09001KT 9999 FEW033 BKN250 08/07 Q1021 NOSIG
LJLJ 222100Z 16001KT 9999 FEW033 BKN250 08/07 Q1021 NOSIG
LJLJ 222030Z 05001KT 9999 FEW033 BKN250 09/08 Q1022 NOSIG
LJLJ 222000Z VRB01KT 9999 FEW033 BKN250 09/07 Q1022 NOSIG
LJLJ 221930Z 23003KT 210V280 9999 FEW033 BKN190 11/08 Q1022 NOSIG
LJLJ 221900Z VRB02KT 9999 FEW033 BKN190 11/09 Q1022 NOSIG
LJLJ 221830Z 24004KT 9999 FEW033 BKN190 12/08 Q1022 NOSIG
LJLJ 221800Z 23004KT 9999 FEW033 BKN190 13/08 Q1022 NOSIG
LJLJ 221730Z 22005KT 190V250 9999 FEW033 BKN190 14/08 Q1022 NOSIG
LJLJ 221700Z 22006KT 9999 FEW033 BKN190 14/09 Q1022 NOSIG
LJLJ 221630Z 22006KT 200V260 9999 FEW033 BKN190 14/09 Q1021 NOSIG
LJLJ 221600Z 22006KT 190V250 9999 FEW033 BKN210 15/09 Q1021 NOSIG
LJLJ 221530Z 22006KT 9999 FEW033 BKN210 15/09 Q1021 NOSIG
LJLJ 221500Z 22008KT 170V250 9999 FEW033 BKN250 16/09 Q1021 NOSIG
LJLJ 221430Z 22008KT 180V250 9999 FEW035 BKN250 16/09 Q1021 NOSIG
LJLJ 221400Z 22011KT 190V260 9999 FEW035 BKN250 17/09 Q1021 NOSIG
LJLJ 221330Z 24010KT 190V260 9999 FEW050 BKN250 17/10 Q1021 NOSIG
LJLJ 221300Z 23011KT 200V260 9999 FEW050 BKN250 17/09 Q1021 NOSIG
LJLJ 221230Z 23012KT 190V260 9999 FEW050 BKN250 18/09 Q1021 NOSIG
LJLJ 221200Z 22013KT 200V260 9999 FEW050 BKN250 18/09 Q1021 NOSIG
LJLJ 221130Z 24013KT 200V260 9999 FEW045 BKN250 17/09 Q1022 NOSIG
LJLJ 221100Z 24014KT 200V270 9999 FEW045 BKN250 18/09 Q1022 NOSIG
LJLJ 221030Z 24010KT 200V280 9999 FEW038 SCT250 18/09 Q1022 NOSIG
LJLJ 221000Z 22007KT 170V250 9999 FEW038 SCT250 17/09 Q1022 NOSIG